Latest Weather Forecast - Monday 3rd December 2018 (6pm)

Forecast Period: 6pm- Monday 3rd December 2018 to 6am-Tuesday 4th December 2018
Synopsis: A surface to low level trough will be approaching the islands
Forecast: Partly cloudy to occasionally cloudy and breezy with a few brief scattered showers
Weather Advisory/Warning: None
Winds:

ENE to E at 20 to 40 km/h (12 to 25 mph) 

Sea Conditions: Moderate in open water; swells 2.0m to 2.5m
Marine 
Advisory:
A small craft operators and sea bathers should exercise caution due to above normal sea swells
Upcoming Tides:
High: 03:10 am  03:50 pm  
Low: 11:23 am  08:37 pm

Aviation WX

[Source: ADDS]
METAR
TVSA 201100Z 08010KT 9999 SCT018 26/20 Q1014 NOSIG =
TVSA 201100Z 2012/2112 12012KT 9999 SCT018
TAF
TVSA 201100Z 2012/2112 12012KT 9999 SCT018 =
SR / SS: 10:08 / 22:15 UTC (Sunrise Sunset 2019-03-20)